Verona, Canada
Current Conditions -  °F | °C
As of 7:00 PM on Thursday 27 Nov 2014 (Local Time) from CYGK Reporting Station
Light Snow Light Snow  
Wind Chill: 27°   Ceiling: 8000
Heat Index: 27°   Visibility: 10mi
Dew Point: 25°   Wind: 3mph
Humidity: 93%   Direction: 350°N
Pressure: 30.07"   Gusts: NA
Location:  44.48°N, 76.68°W
Report Text: CYGK 280000Z 35003KT 10SM -SN SCT042 OVC080 M03/M04 A3007 RMK SC4AC4 SLP186
Loading
Personal Weather Stations






























Interactive Weather Map New forecast layout! Learn more

10-Day Weather Forecast

Advertisements
Track Severe Weather on mobile